Time;durP1;ratioP1;P1;durP2;ratioP2;P2;SDS_P1;SDS_P2;PMS_P1;PMS_P2;Temp;Humidity;BMP_temperature;BMP_pressure;BME280_temperature;BME280_humidity;BME280_pressure;Samples;Min_cycle;Max_cycle;Signal;HPM_P1;HPM_P2
2022/05/15 00:03:16;;;;;;;5.38;3.25;;;;;;;;;;10320118;28;20046;-45
2022/05/15 00:08:16;;;;;;;5.53;2.70;;;;;;;;;;10312393;28;20025;-45
2022/05/15 00:13:18;;;;;;;5.05;3.05;;;;;;;;;;10311550;28;20272;-45
2022/05/15 00:18:21;;;;;;;5.47;3.50;;;;;;;;;;10313077;28;20030;-45
2022/05/15 00:23:24;;;;;;;9.23;3.53;;;;;;;;;;10300791;28;20497;-45
2022/05/15 00:28:25;;;;;;;4.25;2.78;;;;;;;;;;10302645;28;20030;-46
2022/05/15 00:33:25;;;;;;;5.53;3.05;;;;;;;;;;10313147;28;20022;-45
2022/05/15 00:38:26;;;;;;;4.40;2.88;;;;;;;;;;10310041;28;20034;-45
2022/05/15 00:43:47;;;;;;;6.03;2.88;;;;;;;;;;10308911;28;20502;-45
2022/05/15 00:48:51;;;;;;;6.15;3.60;;;;;;;;;;10308888;28;20118;-45
2022/05/15 00:53:59;;;;;;;4.80;3.30;;;;;;;;;;10311142;28;20069;-45
2022/05/15 00:59:08;;;;;;;4.53;2.95;;;;;;;;;;10312113;28;20038;-46
2022/05/15 01:04:09;;;;;;;5.35;2.72;;;;;;;;;;10316675;28;20162;-46
2022/05/15 01:09:11;;;;;;;21.13;3.20;;;;;;;;;;10324935;28;20022;-46
2022/05/15 01:14:15;;;;;;;15.15;2.97;;;;;;;;;;10303775;28;20065;-47
2022/05/15 01:19:15;;;;;;;12.05;3.10;;;;;;;;;;10313995;28;20074;-47
2022/05/15 01:24:16;;;;;;;9.93;3.25;;;;;;;;;;10302168;28;20415;-47
2022/05/15 01:29:26;;;;;;;5.65;2.95;;;;;;;;;;10303895;28;20041;-47
2022/05/15 01:34:27;;;;;;;6.10;3.00;;;;;;;;;;10307935;28;20039;-47
2022/05/15 01:39:29;;;;;;;4.15;2.80;;;;;;;;;;10302913;28;20038;-47
2022/05/15 01:44:31;;;;;;;4.90;2.75;;;;;;;;;;10311595;28;20042;-47
2022/05/15 01:49:32;;;;;;;10.65;2.70;;;;;;;;;;10306440;28;21494;-47
2022/05/15 01:54:32;;;;;;;7.22;2.70;;;;;;;;;;10307851;28;20038;-47
2022/05/15 01:59:33;;;;;;;5.07;2.90;;;;;;;;;;10304045;28;20033;-47
2022/05/15 02:04:34;;;;;;;7.35;2.90;;;;;;;;;;10307153;28;20531;-47
2022/05/15 02:09:35;;;;;;;7.88;2.63;;;;;;;;;;10307287;28;20042;-47
2022/05/15 02:14:35;;;;;;;7.30;2.47;;;;;;;;;;10320313;28;20062;-47
2022/05/15 02:19:36;;;;;;;7.15;2.85;;;;;;;;;;10319122;28;20050;-46
2022/05/15 02:24:37;;;;;;;5.45;2.67;;;;;;;;;;10314985;28;20031;-47
2022/05/15 02:29:37;;;;;;;3.13;2.38;;;;;;;;;;10306988;28;20042;-47
2022/05/15 02:34:38;;;;;;;10.48;2.83;;;;;;;;;;10305361;28;20030;-47
2022/05/15 02:39:39;;;;;;;7.47;2.88;;;;;;;;;;10315733;28;20474;-47
2022/05/15 02:44:39;;;;;;;4.72;2.17;;;;;;;;;;10313962;28;20034;-47
2022/05/15 02:54:59;;;;;;;4.40;2.20;;;;;;;;;;10326800;28;20486;-47
2022/05/15 02:59:59;;;;;;;3.20;2.33;;;;;;;;;;10309952;28;20034;-47
2022/05/15 03:05:00;;;;;;;4.82;2.33;;;;;;;;;;10316513;28;20515;-47
2022/05/15 03:10:01;;;;;;;4.38;2.38;;;;;;;;;;10313702;28;20057;-47
2022/05/15 03:15:03;;;;;;;4.97;2.38;;;;;;;;;;10313490;28;20107;-47
2022/05/15 03:20:06;;;;;;;3.75;2.10;;;;;;;;;;10317015;28;20043;-47
2022/05/15 03:25:08;;;;;;;3.90;2.33;;;;;;;;;;10315790;28;20211;-47
2022/05/15 03:30:10;;;;;;;5.43;2.22;;;;;;;;;;10301304;28;20058;-46
2022/05/15 03:35:11;;;;;;;2.97;2.00;;;;;;;;;;10309420;28;20042;-46
2022/05/15 03:40:15;;;;;;;2.63;2.25;;;;;;;;;;10315456;28;20035;-46
2022/05/15 03:45:16;;;;;;;1.85;1.75;;;;;;;;;;10306742;28;20056;-47
2022/05/15 03:50:20;;;;;;;3.35;2.15;;;;;;;;;;10319412;28;20072;-46
2022/05/15 03:55:22;;;;;;;3.35;2.10;;;;;;;;;;10316108;28;20035;-46
2022/05/15 04:00:24;;;;;;;3.85;2.10;;;;;;;;;;10312475;28;20125;-47
2022/05/15 04:05:24;;;;;;;2.20;1.77;;;;;;;;;;10316071;28;20027;-47
2022/05/15 04:10:26;;;;;;;2.95;1.88;;;;;;;;;;10319387;28;20494;-47
2022/05/15 04:15:27;;;;;;;3.03;2.00;;;;;;;;;;10312130;28;20045;-47
2022/05/15 04:20:29;;;;;;;2.22;1.83;;;;;;;;;;10305742;28;20062;-47
2022/05/15 04:25:30;;;;;;;3.35;2.33;;;;;;;;;;10306728;28;20032;-47
2022/05/15 04:30:30;;;;;;;3.97;2.10;;;;;;;;;;10304940;28;20039;-47
2022/05/15 04:35:31;;;;;;;2.15;1.85;;;;;;;;;;10311102;28;20035;-47
2022/05/15 04:40:31;;;;;;;2.13;1.92;;;;;;;;;;10310190;28;20377;-46
2022/05/15 04:45:32;;;;;;;2.83;2.22;;;;;;;;;;10323037;28;20175;-47
2022/05/15 04:50:37;;;;;;;3.03;2.15;;;;;;;;;;10310106;28;20122;-47
2022/05/15 04:55:37;;;;;;;2.95;2.22;;;;;;;;;;10306477;28;20345;-46
2022/05/15 05:00:38;;;;;;;2.58;1.92;;;;;;;;;;10312070;28;20077;-46
2022/05/15 05:05:39;;;;;;;3.63;2.05;;;;;;;;;;10322636;28;20034;-46
2022/05/15 05:10:40;;;;;;;2.33;1.80;;;;;;;;;;10310181;28;20034;-46
2022/05/15 05:15:41;;;;;;;2.63;2.00;;;;;;;;;;10321988;28;20194;-46
2022/05/15 05:20:43;;;;;;;2.97;2.05;;;;;;;;;;10322907;28;20114;-46
2022/05/15 05:25:44;;;;;;;2.92;2.22;;;;;;;;;;10302755;28;20411;-46
2022/05/15 05:30:45;;;;;;;2.88;1.98;;;;;;;;;;10315812;28;20022;-45
2022/05/15 05:35:46;;;;;;;2.50;1.90;;;;;;;;;;10321029;28;20030;-46
2022/05/15 05:40:47;;;;;;;2.88;1.92;;;;;;;;;;10300881;28;20113;-46
2022/05/15 05:45:47;;;;;;;3.58;2.15;;;;;;;;;;10319390;28;20035;-46
2022/05/15 05:50:48;;;;;;;4.22;2.10;;;;;;;;;;10311874;28;20092;-46
2022/05/15 05:55:49;;;;;;;14.43;2.75;;;;;;;;;;10312540;28;20026;-46
2022/05/15 06:00:50;;;;;;;6.22;2.28;;;;;;;;;;10292174;28;20134;-46
2022/05/15 06:05:52;;;;;;;4.60;2.03;;;;;;;;;;10312213;28;20030;-46
2022/05/15 06:10:53;;;;;;;6.15;1.80;;;;;;;;;;10320882;28;20592;-46
2022/05/15 06:15:54;;;;;;;2.80;2.30;;;;;;;;;;10309920;28;20232;-46
2022/05/15 06:20:55;;;;;;;5.10;2.17;;;;;;;;;;10321659;28;20076;-46
2022/05/15 06:25:55;;;;;;;2.72;2.00;;;;;;;;;;10307906;28;20081;-46
2022/05/15 06:30:56;;;;;;;4.15;2.08;;;;;;;;;;10325201;28;20035;-46
2022/05/15 06:35:58;;;;;;;3.97;1.95;;;;;;;;;;10324420;28;20053;-46
2022/05/15 06:40:58;;;;;;;2.72;2.10;;;;;;;;;;10318084;28;20522;-46
2022/05/15 06:45:59;;;;;;;3.75;1.90;;;;;;;;;;10309845;28;20026;-46
2022/05/15 06:51:00;;;;;;;2.58;1.50;;;;;;;;;;10298952;28;20041;-46
2022/05/15 07:01:20;;;;;;;1.85;1.75;;;;;;;;;;10313013;28;20446;-46
2022/05/15 07:06:21;;;;;;;1.83;1.67;;;;;;;;;;10322789;28;20026;-46
2022/05/15 07:11:21;;;;;;;3.03;2.10;;;;;;;;;;10318811;28;20030;-46
2022/05/15 07:16:22;;;;;;;2.08;1.73;;;;;;;;;;10326456;28;20109;-46
2022/05/15 07:21:22;;;;;;;2.00;1.70;;;;;;;;;;10314177;28;20556;-46
2022/05/15 07:26:24;;;;;;;5.18;2.10;;;;;;;;;;10320400;28;20042;-46
2022/05/15 07:31:25;;;;;;;3.92;1.90;;;;;;;;;;10321384;28;20022;-46
2022/05/15 07:36:26;;;;;;;2.22;1.65;;;;;;;;;;10323276;28;20033;-46
2022/05/15 07:41:27;;;;;;;4.63;1.75;;;;;;;;;;10312109;28;20030;-46
2022/05/15 07:46:28;;;;;;;2.72;2.00;;;;;;;;;;10316570;28;20026;-46
2022/05/15 07:51:31;;;;;;;6.38;2.08;;;;;;;;;;10314706;28;20488;-46
2022/05/15 07:56:31;;;;;;;2.88;1.67;;;;;;;;;;10308599;28;20487;-46
2022/05/15 08:01:32;;;;;;;2.95;2.10;;;;;;;;;;10316861;28;20043;-46
2022/05/15 08:11:53;;;;;;;1.77;1.60;;;;;;;;;;10301727;28;20031;-46
2022/05/15 08:16:53;;;;;;;3.53;1.80;;;;;;;;;;10308693;28;20045;-46
2022/05/15 08:27:13;;;;;;;3.50;2.30;;;;;;;;;;10316198;28;20418;-46
2022/05/15 08:32:14;;;;;;;3.63;2.40;;;;;;;;;;10310384;28;20034;-46
2022/05/15 08:37:15;;;;;;;4.88;2.35;;;;;;;;;;10318678;28;20046;-46
2022/05/15 08:42:33;;;;;;;2.78;2.58;;;;;;;;;;10311594;28;20030;-46
2022/05/15 08:47:46;;;;;;;5.88;3.00;;;;;;;;;;10310341;28;20085;-46
2022/05/15 08:53:14;;;;;;;4.03;3.53;;;;;;;;;;10307699;28;20022;-46
2022/05/15 08:58:35;;;;;;;6.60;3.50;;;;;;;;;;10307755;28;20065;-46
2022/05/15 09:03:40;;;;;;;7.07;3.92;;;;;;;;;;10312397;28;20030;-46
2022/05/15 09:09:08;;;;;;;5.05;3.92;;;;;;;;;;10309838;28;20086;-46
2022/05/15 09:14:19;;;;;;;;;;;;;;;;;;10305854;28;20113;-43
2022/05/15 09:19:20;;;;;;;6.95;3.90;;;;;;;;;;10306950;28;19971;-43
2022/05/15 09:24:41;;;;;;;4.22;3.60;;;;;;;;;;10312181;28;20104;-45
2022/05/15 09:29:41;;;;;;;5.18;3.95;;;;;;;;;;10303819;28;20108;-43
2022/05/15 09:34:43;;;;;;;5.00;3.65;;;;;;;;;;10317389;28;20077;-43
2022/05/15 09:39:50;;;;;;;4.40;3.70;;;;;;;;;;10318789;28;20176;-43
2022/05/15 09:44:50;;;;;;;4.40;3.65;;;;;;;;;;10313641;28;20049;-43
2022/05/15 09:49:51;;;;;;;7.32;4.03;;;;;;;;;;10335339;28;20048;-43
2022/05/15 09:54:52;;;;;;;6.13;4.28;;;;;;;;;;10335380;28;20034;-43
2022/05/15 10:00:00;;;;;;;4.85;3.50;;;;;;;;;;10327698;28;20050;-44
2022/05/15 10:05:00;;;;;;;4.97;3.55;;;;;;;;;;10330128;28;20112;-43
2022/05/15 10:10:19;;;;;;;5.35;3.63;;;;;;;;;;10326966;28;20033;-44
2022/05/15 10:15:21;;;;;;;6.43;3.88;;;;;;;;;;10326151;28;20038;-44
2022/05/15 10:20:34;;;;;;;6.30;3.75;;;;;;;;;;10313297;28;20051;-44
2022/05/15 10:26:05;;;;;;;4.28;3.42;;;;;;;;;;10325776;28;20038;-43
2022/05/15 10:31:32;;;;;;;11.60;3.75;;;;;;;;;;10321506;28;20031;-45
2022/05/15 10:37:11;;;;;;;3.70;3.20;;;;;;;;;;10324965;28;20042;-44
2022/05/15 10:42:23;;;;;;;6.78;3.28;;;;;;;;;;10324525;28;20076;-45
2022/05/15 10:47:48;;;;;;;4.50;3.25;;;;;;;;;;10321338;28;20041;-45
2022/05/15 10:53:00;;;;;;;4.78;3.33;;;;;;;;;;10341433;28;20497;-45
2022/05/15 10:58:33;;;;;;;22.05;4.80;;;;;;;;;;10328820;28;20474;-45
2022/05/15 11:03:48;;;;;;;5.45;3.40;;;;;;;;;;10303529;28;20034;-44
2022/05/15 11:09:06;;;;;;;4.00;3.35;;;;;;;;;;10316394;28;20053;-45
2022/05/15 11:14:37;;;;;;;4.40;3.37;;;;;;;;;;10328433;28;20449;-44
2022/05/15 11:19:41;;;;;;;6.75;3.20;;;;;;;;;;10310747;28;20402;-43
2022/05/15 11:25:05;;;;;;;12.73;3.75;;;;;;;;;;10312948;28;20026;-44
2022/05/15 11:30:21;;;;;;;9.95;3.70;;;;;;;;;;10324154;28;20064;-44
2022/05/15 11:35:27;;;;;;;7.05;3.50;;;;;;;;;;10323954;28;20486;-45
2022/05/15 11:40:50;;;;;;;5.28;3.20;;;;;;;;;;10326415;28;20048;-45
2022/05/15 11:45:59;;;;;;;6.88;3.38;;;;;;;;;;10326521;28;20046;-44
2022/05/15 11:51:13;;;;;;;5.57;3.70;;;;;;;;;;10303504;28;20486;-44
2022/05/15 11:56:26;;;;;;;5.07;3.35;;;;;;;;;;10325411;28;20038;-44
2022/05/15 12:01:34;;;;;;;6.35;3.42;;;;;;;;;;10308503;28;20108;-45
2022/05/15 12:06:49;;;;;;;3.87;3.33;;;;;;;;;;10328978;28;20038;-44
2022/05/15 12:11:54;;;;;;;5.65;3.53;;;;;;;;;;10328749;28;20026;-45
2022/05/15 12:17:25;;;;;;;5.15;3.40;;;;;;;;;;10325909;28;20034;-43
2022/05/15 12:22:26;;;;;;;4.72;3.10;;;;;;;;;;10317334;28;20509;-44
2022/05/15 12:27:28;;;;;;;6.97;3.22;;;;;;;;;;10327335;28;20039;-44
2022/05/15 12:33:07;;;;;;;3.50;3.10;;;;;;;;;;10324960;28;20042;-44
2022/05/15 12:38:25;;;;;;;4.90;3.00;;;;;;;;;;10320343;28;20066;-44
2022/05/15 12:43:31;;;;;;;5.30;3.45;;;;;;;;;;10325658;28;20054;-45
2022/05/15 12:48:36;;;;;;;5.88;3.60;;;;;;;;;;10323279;28;20030;-44
2022/05/15 12:53:44;;;;;;;4.93;3.50;;;;;;;;;;10324766;28;20034;-45
2022/05/15 12:58:58;;;;;;;8.18;3.67;;;;;;;;;;10313877;28;20045;-44
2022/05/15 13:04:03;;;;;;;8.25;4.03;;;;;;;;;;10326444;28;20113;-44
2022/05/15 13:09:08;;;;;;;8.10;4.07;;;;;;;;;;10327383;28;20386;-44
2022/05/15 13:14:28;;;;;;;5.70;3.70;;;;;;;;;;10347280;28;20045;-44
2022/05/15 13:19:47;;;;;;;8.02;4.10;;;;;;;;;;10316123;28;20173;-45
2022/05/15 13:24:52;;;;;;;6.82;3.83;;;;;;;;;;10316489;28;20021;-44
2022/05/15 13:29:53;;;;;;;9.05;4.85;;;;;;;;;;10323889;28;20041;-45
2022/05/15 13:34:54;;;;;;;9.07;4.15;;;;;;;;;;10307683;28;20037;-45
2022/05/15 13:46:17;;;;;;;8.40;3.67;;;;;;;;;;10326416;28;20034;-45
2022/05/15 13:51:41;;;;;;;11.18;4.18;;;;;;;;;;10326334;28;20034;-46
2022/05/15 13:57:08;;;;;;;8.98;4.53;;;;;;;;;;10320770;28;20402;-45
2022/05/15 14:02:26;;;;;;;12.23;4.33;;;;;;;;;;10326318;28;20038;-45
2022/05/15 14:07:39;;;;;;;5.90;4.22;;;;;;;;;;10292390;28;20038;-45
2022/05/15 14:12:49;;;;;;;9.25;4.82;;;;;;;;;;10297297;28;20116;-46
2022/05/15 14:17:51;;;;;;;11.25;4.68;;;;;;;;;;10310586;28;20406;-46
2022/05/15 14:22:51;;;;;;;11.68;4.70;;;;;;;;;;10316447;28;20040;-45
2022/05/15 14:27:53;;;;;;;10.30;4.30;;;;;;;;;;10308960;28;20034;-45
2022/05/15 14:33:01;;;;;;;7.88;4.43;;;;;;;;;;10314428;28;20040;-45
2022/05/15 14:38:01;;;;;;;5.22;4.45;;;;;;;;;;10332376;28;20034;-45
2022/05/15 14:43:02;;;;;;;5.40;4.13;;;;;;;;;;10333303;28;20038;-45
2022/05/15 14:48:06;;;;;;;10.32;4.20;;;;;;;;;;10332795;28;20046;-45
2022/05/15 14:53:07;;;;;;;5.57;4.28;;;;;;;;;;10315710;28;20030;-45
2022/05/15 14:58:12;;;;;;;7.65;4.47;;;;;;;;;;10332105;28;20042;-45
2022/05/15 15:03:13;;;;;;;5.68;3.97;;;;;;;;;;10332047;28;20379;-45
2022/05/15 15:08:23;;;;;;;5.65;3.83;;;;;;;;;;10331718;28;20030;-45
2022/05/15 15:13:24;;;;;;;6.63;4.53;;;;;;;;;;10332180;28;20465;-45
2022/05/15 15:18:27;;;;;;;5.43;4.60;;;;;;;;;;10330650;28;20034;-45
2022/05/15 15:23:27;;;;;;;7.07;4.38;;;;;;;;;;10362503;28;20038;-45
2022/05/15 15:28:28;;;;;;;5.20;4.25;;;;;;;;;;10351613;28;20409;-46
2022/05/15 15:33:29;;;;;;;8.52;4.43;;;;;;;;;;10331467;28;20414;-45
2022/05/15 15:38:30;;;;;;;6.30;4.05;;;;;;;;;;10331233;28;20073;-45
2022/05/15 15:43:36;;;;;;;7.82;4.30;;;;;;;;;;10330365;28;20065;-45
2022/05/15 15:48:38;;;;;;;6.43;4.40;;;;;;;;;;10330839;28;20038;-45
2022/05/15 15:53:39;;;;;;;8.48;4.30;;;;;;;;;;10322409;28;20030;-45
2022/05/15 15:58:39;;;;;;;5.00;3.95;;;;;;;;;;10302775;28;20474;-45
2022/05/15 16:03:40;;;;;;;4.70;4.10;;;;;;;;;;10330273;28;20045;-45
2022/05/15 16:08:41;;;;;;;4.45;4.00;;;;;;;;;;10329299;28;20049;-45
2022/05/15 16:13:42;;;;;;;7.72;4.45;;;;;;;;;;10312880;28;20026;-45
2022/05/15 16:18:43;;;;;;;8.23;4.53;;;;;;;;;;10328773;28;20025;-45
2022/05/15 16:23:44;;;;;;;5.78;4.60;;;;;;;;;;10329975;28;20045;-45
2022/05/15 16:28:45;;;;;;;5.22;4.20;;;;;;;;;;10328623;28;20411;-45
2022/05/15 16:33:45;;;;;;;7.82;4.78;;;;;;;;;;10311473;28;20026;-45
2022/05/15 16:38:46;;;;;;;7.82;4.47;;;;;;;;;;10328120;28;20043;-45
2022/05/15 16:43:47;;;;;;;6.47;4.13;;;;;;;;;;10304238;28;20030;-44
2022/05/15 16:48:47;;;;;;;5.75;4.20;;;;;;;;;;10314162;28;20037;-45
2022/05/15 16:53:48;;;;;;;6.80;4.50;;;;;;;;;;10324818;28;20455;-44
2022/05/15 16:58:49;;;;;;;4.78;4.22;;;;;;;;;;10310481;28;20397;-45
2022/05/15 17:03:49;;;;;;;5.18;3.88;;;;;;;;;;10337263;28;20053;-45
2022/05/15 17:08:50;;;;;;;6.43;4.40;;;;;;;;;;10332385;28;20035;-44
2022/05/15 17:13:51;;;;;;;5.28;4.15;;;;;;;;;;10295808;28;20022;-45
2022/05/15 17:18:51;;;;;;;6.88;4.25;;;;;;;;;;10289148;28;20053;-43
2022/05/15 17:23:52;;;;;;;23.77;4.70;;;;;;;;;;10294481;28;20033;-44
2022/05/15 17:34:17;;;;;;;14.18;5.35;;;;;;;;;;10308676;28;20034;-43
2022/05/15 17:39:18;;;;;;;8.38;4.30;;;;;;;;;;10296198;28;20038;-44
2022/05/15 17:44:19;;;;;;;8.48;4.20;;;;;;;;;;10308484;28;20142;-43
2022/05/15 17:49:20;;;;;;;12.00;4.70;;;;;;;;;;10306859;28;20182;-43
2022/05/15 17:54:20;;;;;;;9.90;5.32;;;;;;;;;;10310064;28;20027;-44
2022/05/15 17:59:21;;;;;;;7.45;4.25;;;;;;;;;;10315540;28;20057;-44
2022/05/15 18:04:21;;;;;;;8.75;4.50;;;;;;;;;;10296589;28;20026;-44
2022/05/15 18:09:22;;;;;;;10.70;4.70;;;;;;;;;;10324580;28;20467;-44
2022/05/15 18:14:22;;;;;;;6.22;3.80;;;;;;;;;;10332143;28;20393;-44
2022/05/15 18:19:23;;;;;;;7.32;4.05;;;;;;;;;;10332592;28;20092;-44
2022/05/15 18:24:24;;;;;;;5.05;3.63;;;;;;;;;;10328596;28;20033;-43
2022/05/15 18:29:25;;;;;;;7.80;3.88;;;;;;;;;;10305392;28;20270;-43
2022/05/15 18:34:26;;;;;;;13.13;4.80;;;;;;;;;;10333800;28;20030;-42
2022/05/15 18:39:26;;;;;;;5.82;4.22;;;;;;;;;;10333531;28;20398;-43
2022/05/15 18:44:28;;;;;;;8.20;4.03;;;;;;;;;;10333644;28;20088;-43
2022/05/15 18:49:29;;;;;;;6.30;4.10;;;;;;;;;;10333598;28;20039;-43
2022/05/15 18:59:52;;;;;;;4.57;4.00;;;;;;;;;;10332992;28;20034;-43
2022/05/15 19:04:55;;;;;;;9.07;4.20;;;;;;;;;;10332319;28;20478;-43
2022/05/15 19:09:56;;;;;;;6.57;4.03;;;;;;;;;;10332962;28;20037;-43
2022/05/15 19:14:56;;;;;;;5.60;3.55;;;;;;;;;;10330233;28;20045;-42
2022/05/15 19:19:57;;;;;;;4.80;3.50;;;;;;;;;;10331685;28;20071;-43
2022/05/15 19:24:58;;;;;;;5.47;3.80;;;;;;;;;;10332013;28;20153;-43
2022/05/15 19:29:58;;;;;;;4.03;3.60;;;;;;;;;;10330381;28;20497;-42
2022/05/15 19:34:59;;;;;;;7.40;3.65;;;;;;;;;;10331240;28;20080;-43
2022/05/15 19:39:59;;;;;;;4.85;3.35;;;;;;;;;;10331602;28;20046;-42
2022/05/15 19:45:01;;;;;;;4.85;3.60;;;;;;;;;;10330338;28;20168;-43
2022/05/15 19:50:04;;;;;;;4.80;3.90;;;;;;;;;;10332055;28;20026;-43
2022/05/15 19:55:05;;;;;;;4.57;3.40;;;;;;;;;;10347270;28;20037;-42
2022/05/15 20:00:12;;;;;;;6.00;3.78;;;;;;;;;;10330390;28;20088;-42
2022/05/15 20:15:51;;;;;;;6.53;3.75;;;;;;;;;;10305749;28;20034;-43
2022/05/15 20:20:52;;;;;;;7.28;3.50;;;;;;;;;;10327975;28;20045;-43
2022/05/15 20:25:53;;;;;;;4.50;3.30;;;;;;;;;;10292990;28;20433;-42
2022/05/15 20:30:54;;;;;;;9.82;4.05;;;;;;;;;;10299590;28;20118;-43
2022/05/15 20:35:54;;;;;;;7.60;3.90;;;;;;;;;;10310943;28;20034;-42
2022/05/15 20:40:55;;;;;;;8.30;3.40;;;;;;;;;;10345847;28;20041;-43
2022/05/15 20:45:58;;;;;;;5.10;3.20;;;;;;;;;;10327926;28;20027;-43
2022/05/15 20:50:59;;;;;;;6.80;3.70;;;;;;;;;;10326912;28;20030;-44
2022/05/15 20:55:59;;;;;;;9.43;3.75;;;;;;;;;;10324717;28;20065;-43
2022/05/15 21:01:03;;;;;;;8.90;4.20;;;;;;;;;;10310704;28;20279;-43
2022/05/15 21:06:03;;;;;;;9.07;4.10;;;;;;;;;;10291565;28;20034;-43
2022/05/15 21:11:05;;;;;;;6.40;3.47;;;;;;;;;;10297356;28;20061;-43
2022/05/15 21:16:07;;;;;;;9.02;3.90;;;;;;;;;;10292710;28;20030;-43
2022/05/15 21:21:08;;;;;;;6.47;3.70;;;;;;;;;;10295553;28;20121;-43
2022/05/15 21:26:09;;;;;;;12.60;3.80;;;;;;;;;;10326599;28;20088;-43
2022/05/15 21:31:10;;;;;;;8.30;3.90;;;;;;;;;;10327066;28;20039;-43
2022/05/15 21:36:11;;;;;;;10.32;3.97;;;;;;;;;;10325180;28;20038;-43
2022/05/15 21:46:31;;;;;;;8.63;3.75;;;;;;;;;;10325871;28;20042;-44
2022/05/15 21:51:32;;;;;;;5.88;3.80;;;;;;;;;;10324916;28;20478;-45
2022/05/15 21:56:32;;;;;;;7.20;3.92;;;;;;;;;;10356493;28;20018;-44
2022/05/15 22:01:34;;;;;;;4.20;3.20;;;;;;;;;;10326273;28;20038;-44
2022/05/15 22:06:35;;;;;;;7.50;3.47;;;;;;;;;;10325412;28;20037;-44
2022/05/15 22:11:35;;;;;;;9.73;3.55;;;;;;;;;;10326462;28;20360;-44
2022/05/15 22:16:36;;;;;;;5.97;3.30;;;;;;;;;;10325928;28;20066;-44
2022/05/15 22:21:36;;;;;;;7.10;3.30;;;;;;;;;;10324584;28;20046;-44
2022/05/15 22:26:39;;;;;;;9.43;3.50;;;;;;;;;;10325513;28;20394;-44
2022/05/15 22:31:39;;;;;;;5.00;3.25;;;;;;;;;;10307581;28;20047;-45
2022/05/15 22:36:40;;;;;;;4.90;3.13;;;;;;;;;;10324582;28;20026;-44
2022/05/15 22:41:41;;;;;;;9.82;3.65;;;;;;;;;;10325894;28;20065;-44
2022/05/15 22:46:42;;;;;;;8.85;3.13;;;;;;;;;;10330138;28;20081;-44
2022/05/15 22:51:42;;;;;;;7.75;3.60;;;;;;;;;;10348054;28;20037;-44
2022/05/15 22:56:43;;;;;;;7.53;3.53;;;;;;;;;;10331746;28;20041;-43
2022/05/15 23:01:44;;;;;;;7.28;3.33;;;;;;;;;;10332362;28;20030;-44
2022/05/15 23:12:04;;;;;;;4.40;3.05;;;;;;;;;;10300304;28;20522;-45
2022/05/15 23:17:04;;;;;;;12.52;3.03;;;;;;;;;;10331640;28;20057;-43
2022/05/15 23:22:05;;;;;;;3.95;2.95;;;;;;;;;;10331740;28;20491;-44
2022/05/15 23:27:06;;;;;;;6.15;2.97;;;;;;;;;;10331450;28;20390;-43
2022/05/15 23:32:10;;;;;;;9.23;3.10;;;;;;;;;;10331617;28;20042;-43
2022/05/15 23:37:11;;;;;;;5.90;3.70;;;;;;;;;;10331481;28;20038;-45
2022/05/15 23:42:12;;;;;;;5.60;3.00;;;;;;;;;;10330842;28;20049;-45
2022/05/15 23:47:13;;;;;;;3.78;2.78;;;;;;;;;;10331161;28;20040;-43
2022/05/15 23:52:16;;;;;;;6.63;3.00;;;;;;;;;;10330659;28;20436;-44
2022/05/15 23:57:17;;;;;;;4.43;2.90;;;;;;;;;;10330497;28;20109;-44
